Time;durP1;ratioP1;P1;durP2;ratioP2;P2;SDS_P1;SDS_P2;PMS_P1;PMS_P2;Temp;Humidity;BMP_temperature;BMP_pressure;BME280_temperature;BME280_humidity;BME280_pressure;Samples;Min_cycle;Max_cycle;Signal;HPM_P1;HPM_P2
2023/12/19 00:01:46;;;;;;;22.15;14.57;;;;;;;;;;5085247;28;20195;-73
2023/12/19 00:04:12;;;;;;;24.77;15.95;;;;;;;;;;5085006;28;20673;-74
2023/12/19 00:06:39;;;;;;;24.10;15.15;;;;;;;;;;5089131;28;20277;-74
2023/12/19 00:09:05;;;;;;;26.27;16.60;;;;;;;;;;5090165;28;20418;-74
2023/12/19 00:11:31;;;;;;;26.27;16.17;;;;;;;;;;5085069;28;20211;-73
2023/12/19 00:13:57;;;;;;;22.85;15.38;;;;;;;;;;5084816;28;20674;-74
2023/12/19 00:16:24;;;;;;;22.00;14.68;;;;;;;;;;5089640;28;20219;-73
2023/12/19 00:18:51;;;;;;;23.30;14.93;;;;;;;;;;5087663;28;20211;-73
2023/12/19 00:21:17;;;;;;;24.58;16.45;;;;;;;;;;5085208;28;20200;-73
2023/12/19 00:23:44;;;;;;;22.00;15.77;;;;;;;;;;5085233;28;20196;-73
2023/12/19 00:26:12;;;;;;;25.13;14.68;;;;;;;;;;5085390;28;20282;-73
2023/12/19 00:28:38;;;;;;;21.25;14.43;;;;;;;;;;5086999;28;20199;-73
2023/12/19 00:31:04;;;;;;;21.92;14.57;;;;;;;;;;5087177;28;20216;-73
2023/12/19 00:33:30;;;;;;;21.17;14.48;;;;;;;;;;5086483;28;20621;-73
2023/12/19 00:35:58;;;;;;;23.92;15.43;;;;;;;;;;5086464;28;20220;-73
2023/12/19 00:38:24;;;;;;;26.90;15.68;;;;;;;;;;5089642;28;20199;-74
2023/12/19 00:40:50;;;;;;;19.80;14.45;;;;;;;;;;5087241;28;20196;-74
2023/12/19 00:43:17;;;;;;;21.30;15.55;;;;;;;;;;5084245;28;20696;-74
2023/12/19 00:45:43;;;;;;;24.88;15.90;;;;;;;;;;5087995;28;20724;-73
2023/12/19 00:48:10;;;;;;;24.77;16.40;;;;;;;;;;5089659;28;20211;-73
2023/12/19 00:50:36;;;;;;;30.60;16.25;;;;;;;;;;5084480;28;20211;-73
2023/12/19 00:53:04;;;;;;;22.75;15.32;;;;;;;;;;5085612;28;20247;-73
2023/12/19 00:55:30;;;;;;;21.10;14.85;;;;;;;;;;5089213;28;20263;-73
2023/12/19 00:57:56;;;;;;;22.83;14.65;;;;;;;;;;5087852;28;20253;-73
2023/12/19 01:00:23;;;;;;;20.10;13.93;;;;;;;;;;5083836;28;20617;-73
2023/12/19 01:02:49;;;;;;;18.83;13.98;;;;;;;;;;5085094;28;20196;-73
2023/12/19 01:05:15;;;;;;;23.35;12.80;;;;;;;;;;5084988;28;20224;-74
2023/12/19 01:07:41;;;;;;;16.20;12.32;;;;;;;;;;5093765;28;20249;-73
2023/12/19 01:10:10;;;;;;;19.38;13.10;;;;;;;;;;5085472;28;20212;-73
2023/12/19 01:12:36;;;;;;;16.75;13.00;;;;;;;;;;5084877;28;20688;-73
2023/12/19 01:15:02;;;;;;;16.58;12.85;;;;;;;;;;5085266;28;20262;-74
2023/12/19 01:17:29;;;;;;;19.27;12.55;;;;;;;;;;5089083;28;20207;-73
2023/12/19 01:19:55;;;;;;;18.13;12.00;;;;;;;;;;5086391;28;20199;-73
2023/12/19 01:22:21;;;;;;;15.75;11.05;;;;;;;;;;5083835;28;20204;-73
2023/12/19 01:24:48;;;;;;;14.70;11.35;;;;;;;;;;5083396;28;20227;-73
2023/12/19 01:27:15;;;;;;;16.63;12.07;;;;;;;;;;5083670;28;20204;-73
2023/12/19 01:29:42;;;;;;;14.13;10.93;;;;;;;;;;5087845;28;20203;-73
2023/12/19 01:32:08;;;;;;;18.35;11.85;;;;;;;;;;5088094;28;20243;-73
2023/12/19 01:34:34;;;;;;;18.67;12.20;;;;;;;;;;5083588;28;20208;-73
2023/12/19 01:37:00;;;;;;;16.25;11.48;;;;;;;;;;5083595;28;20668;-73
2023/12/19 01:39:27;;;;;;;13.82;9.88;;;;;;;;;;5083368;28;20685;-73
2023/12/19 01:41:53;;;;;;;16.70;10.88;;;;;;;;;;5086554;28;20266;-72
2023/12/19 01:44:21;;;;;;;17.50;12.35;;;;;;;;;;5088281;28;20261;-72
2023/12/19 01:46:47;;;;;;;15.43;11.98;;;;;;;;;;5084839;28;20224;-73
2023/12/19 01:49:14;;;;;;;16.83;11.32;;;;;;;;;;5083516;28;20200;-73
2023/12/19 01:51:40;;;;;;;16.90;11.40;;;;;;;;;;5083407;28;20257;-74
2023/12/19 01:54:07;;;;;;;15.88;11.18;;;;;;;;;;5084600;28;20794;-74
2023/12/19 01:56:34;;;;;;;17.08;11.20;;;;;;;;;;5088253;28;20220;-74
2023/12/19 01:59:00;;;;;;;15.88;11.48;;;;;;;;;;5086210;28;20249;-74
2023/12/19 02:01:28;;;;;;;14.32;10.82;;;;;;;;;;5083466;28;20286;-74
2023/12/19 02:03:54;;;;;;;19.58;11.73;;;;;;;;;;5083439;28;20200;-74
2023/12/19 02:06:22;;;;;;;15.90;10.75;;;;;;;;;;5082990;28;20217;-74
2023/12/19 02:08:48;;;;;;;13.43;10.32;;;;;;;;;;5087203;28;20192;-73
2023/12/19 02:11:15;;;;;;;18.55;11.15;;;;;;;;;;5088431;28;20431;-73
2023/12/19 02:13:42;;;;;;;14.32;10.05;;;;;;;;;;5080055;28;20196;-73
2023/12/19 02:16:08;;;;;;;15.45;10.48;;;;;;;;;;5086820;28;20768;-73
2023/12/19 02:18:36;;;;;;;13.70;10.35;;;;;;;;;;5083203;28;20200;-73
2023/12/19 02:21:04;;;;;;;16.15;10.70;;;;;;;;;;5083008;28;20618;-73
2023/12/19 02:23:31;;;;;;;12.75;9.18;;;;;;;;;;5082844;28;20246;-73
2023/12/19 02:25:57;;;;;;;11.98;9.27;;;;;;;;;;5086073;28;20224;-73
2023/12/19 02:28:24;;;;;;;10.80;9.15;;;;;;;;;;5088336;28;20220;-73
2023/12/19 02:30:50;;;;;;;10.43;8.82;;;;;;;;;;5083885;28;20211;-73
2023/12/19 02:33:17;;;;;;;12.18;9.68;;;;;;;;;;5075452;28;20219;-73
2023/12/19 02:35:43;;;;;;;12.25;9.77;;;;;;;;;;5082925;28;20302;-73
2023/12/19 02:38:10;;;;;;;13.45;9.55;;;;;;;;;;5095641;28;20256;-73
2023/12/19 02:40:37;;;;;;;10.77;9.63;;;;;;;;;;5087096;28;20199;-73
2023/12/19 02:43:04;;;;;;;11.18;9.73;;;;;;;;;;5087011;28;20581;-73
2023/12/19 02:45:31;;;;;;;14.27;9.45;;;;;;;;;;5086689;28;20217;-73
2023/12/19 02:47:58;;;;;;;12.70;9.75;;;;;;;;;;5090323;28;20197;-73
2023/12/19 02:50:24;;;;;;;12.65;9.43;;;;;;;;;;5091332;28;20614;-73
2023/12/19 02:52:50;;;;;;;11.27;9.15;;;;;;;;;;5087020;28;20572;-74
2023/12/19 02:55:16;;;;;;;13.45;8.90;;;;;;;;;;5087449;28;20220;-73
2023/12/19 02:57:44;;;;;;;13.95;9.82;;;;;;;;;;5086221;28;20245;-73
2023/12/19 03:00:11;;;;;;;19.88;9.77;;;;;;;;;;5088328;28;20200;-73
2023/12/19 03:02:37;;;;;;;13.32;9.80;;;;;;;;;;5091638;28;20204;-73
2023/12/19 03:05:04;;;;;;;15.25;9.93;;;;;;;;;;5089310;28;20219;-73
2023/12/19 03:07:30;;;;;;;16.05;10.13;;;;;;;;;;5086615;28;20491;-73
2023/12/19 03:09:57;;;;;;;17.10;11.30;;;;;;;;;;5095365;28;20203;-73
2023/12/19 03:12:23;;;;;;;15.30;10.95;;;;;;;;;;5086655;28;20723;-73
2023/12/19 03:14:50;;;;;;;17.20;11.15;;;;;;;;;;5082725;28;20307;-73
2023/12/19 03:17:17;;;;;;;14.88;10.88;;;;;;;;;;5090507;28;20264;-73
2023/12/19 03:19:45;;;;;;;15.02;11.38;;;;;;;;;;5086018;28;20200;-73
2023/12/19 03:22:11;;;;;;;14.32;9.95;;;;;;;;;;5086348;28;20204;-73
2023/12/19 03:24:37;;;;;;;14.63;11.05;;;;;;;;;;5085904;28;20254;-73
2023/12/19 03:27:04;;;;;;;13.82;10.65;;;;;;;;;;5089252;28;20204;-73
2023/12/19 03:29:32;;;;;;;18.77;11.93;;;;;;;;;;5090840;28;20571;-73
2023/12/19 03:31:59;;;;;;;13.43;10.27;;;;;;;;;;5087359;28;20212;-73
2023/12/19 03:34:26;;;;;;;12.30;9.77;;;;;;;;;;5085688;28;20625;-73
2023/12/19 03:36:52;;;;;;;14.90;10.75;;;;;;;;;;5086037;28;20630;-73
2023/12/19 03:39:18;;;;;;;13.90;10.35;;;;;;;;;;5087207;28;20572;-73
2023/12/19 03:41:44;;;;;;;12.25;10.77;;;;;;;;;;5090883;28;20246;-73
2023/12/19 03:44:11;;;;;;;13.43;10.25;;;;;;;;;;5089177;28;20660;-73
2023/12/19 03:46:37;;;;;;;14.52;10.63;;;;;;;;;;5087123;28;20778;-73
2023/12/19 03:49:04;;;;;;;14.25;10.57;;;;;;;;;;5086942;28;20753;-73
2023/12/19 03:51:31;;;;;;;14.35;9.95;;;;;;;;;;5085442;28;20640;-73
2023/12/19 03:53:57;;;;;;;12.85;10.32;;;;;;;;;;5089756;28;20749;-73
2023/12/19 03:56:23;;;;;;;13.30;9.48;;;;;;;;;;5089788;28;20712;-73
2023/12/19 03:58:49;;;;;;;12.82;9.77;;;;;;;;;;5082330;28;20200;-74
2023/12/19 04:01:18;;;;;;;12.93;10.10;;;;;;;;;;5088698;28;20622;-73
2023/12/19 04:03:44;;;;;;;15.50;9.25;;;;;;;;;;5085174;28;20203;-73
2023/12/19 04:06:12;;;;;;;11.07;9.25;;;;;;;;;;5085590;28;20220;-74
2023/12/19 04:08:38;;;;;;;11.07;9.98;;;;;;;;;;5085596;28;20226;-74
2023/12/19 04:11:04;;;;;;;12.88;9.48;;;;;;;;;;5088509;28;20223;-72
2023/12/19 04:13:31;;;;;;;10.48;8.90;;;;;;;;;;5090085;28;20211;-73
2023/12/19 04:15:57;;;;;;;10.30;8.38;;;;;;;;;;5085311;28;20632;-73
2023/12/19 04:18:23;;;;;;;10.18;8.13;;;;;;;;;;5084986;28;20704;-73
2023/12/19 04:20:50;;;;;;;12.07;9.05;;;;;;;;;;5085079;28;20295;-73
2023/12/19 04:23:17;;;;;;;12.07;8.02;;;;;;;;;;5086997;28;20558;-73
2023/12/19 04:25:44;;;;;;;9.80;7.50;;;;;;;;;;5090023;28;20220;-74
2023/12/19 04:28:10;;;;;;;9.25;7.43;;;;;;;;;;5087169;28;20203;-73
2023/12/19 04:30:36;;;;;;;8.43;7.07;;;;;;;;;;5084648;28;20200;-74
2023/12/19 04:33:02;;;;;;;8.25;6.95;;;;;;;;;;5084715;28;20268;-73
2023/12/19 04:35:29;;;;;;;8.85;7.20;;;;;;;;;;5085335;28;20216;-73
2023/12/19 04:37:55;;;;;;;10.63;7.78;;;;;;;;;;5085034;28;20206;-74
2023/12/19 04:40:23;;;;;;;8.63;7.45;;;;;;;;;;5093240;28;20586;-73
2023/12/19 04:42:49;;;;;;;9.38;7.35;;;;;;;;;;5084702;28;20192;-73
2023/12/19 04:45:15;;;;;;;16.08;8.55;;;;;;;;;;5084495;28;20227;-74
2023/12/19 04:47:41;;;;;;;13.18;9.40;;;;;;;;;;5084862;28;20208;-73
2023/12/19 04:50:08;;;;;;;13.05;9.32;;;;;;;;;;5087888;28;20258;-73
2023/12/19 04:52:34;;;;;;;14.45;10.93;;;;;;;;;;5089299;28;20303;-73
2023/12/19 04:55:01;;;;;;;15.07;10.60;;;;;;;;;;5084891;28;20224;-74
2023/12/19 04:57:28;;;;;;;17.60;10.95;;;;;;;;;;5084568;28;20200;-73
2023/12/19 04:59:54;;;;;;;15.73;12.30;;;;;;;;;;5083776;28;20241;-73
2023/12/19 05:02:21;;;;;;;16.52;11.02;;;;;;;;;;5086320;28;20200;-73
2023/12/19 05:04:47;;;;;;;15.40;10.32;;;;;;;;;;5089189;28;20558;-74
2023/12/19 05:07:13;;;;;;;13.32;10.10;;;;;;;;;;5086310;28;20641;-74
2023/12/19 05:09:39;;;;;;;14.35;9.38;;;;;;;;;;5084296;28;20211;-73
2023/12/19 05:12:06;;;;;;;13.07;10.27;;;;;;;;;;5088325;28;20208;-73
2023/12/19 05:14:33;;;;;;;14.80;11.00;;;;;;;;;;5088589;28;20272;-74
2023/12/19 05:17:03;;;;;;;15.57;10.43;;;;;;;;;;5084452;28;20191;-74
2023/12/19 05:19:29;;;;;;;12.00;10.02;;;;;;;;;;5084838;28;20291;-74
2023/12/19 05:21:56;;;;;;;16.75;11.35;;;;;;;;;;5088986;28;20258;-74
2023/12/19 05:24:22;;;;;;;15.63;10.50;;;;;;;;;;5086546;28;20204;-74
2023/12/19 05:26:48;;;;;;;12.93;9.60;;;;;;;;;;5083781;28;20731;-74
2023/12/19 05:29:14;;;;;;;14.18;9.80;;;;;;;;;;5082269;28;20699;-74
2023/12/19 05:31:42;;;;;;;12.63;10.02;;;;;;;;;;5083601;28;20628;-74
2023/12/19 05:34:08;;;;;;;12.13;9.55;;;;;;;;;;5083737;28;20211;-74
2023/12/19 05:36:34;;;;;;;13.32;10.02;;;;;;;;;;5084398;28;20297;-74
2023/12/19 05:39:02;;;;;;;12.60;9.45;;;;;;;;;;5083564;28;20203;-74
2023/12/19 05:41:28;;;;;;;13.80;9.90;;;;;;;;;;5084762;28;20201;-74
2023/12/19 05:43:59;;;;;;;15.07;10.48;;;;;;;;;;5088893;28;20427;-74
2023/12/19 05:46:26;;;;;;;13.20;9.15;;;;;;;;;;5080105;28;20601;-74
2023/12/19 05:48:53;;;;;;;11.68;10.02;;;;;;;;;;5082463;28;20208;-74
2023/12/19 05:51:19;;;;;;;12.23;9.75;;;;;;;;;;5086131;28;20246;-74
2023/12/19 05:53:46;;;;;;;12.45;9.00;;;;;;;;;;5088318;28;20200;-74
2023/12/19 05:56:13;;;;;;;12.65;9.82;;;;;;;;;;5084547;28;20284;-74
2023/12/19 05:58:39;;;;;;;12.68;9.68;;;;;;;;;;5083434;28;20295;-74
2023/12/19 06:01:05;;;;;;;13.85;9.35;;;;;;;;;;5083534;28;20245;-74
2023/12/19 06:03:32;;;;;;;11.95;9.57;;;;;;;;;;5084220;28;20197;-74
2023/12/19 06:05:59;;;;;;;15.73;9.88;;;;;;;;;;5088636;28;20231;-73
2023/12/19 06:08:26;;;;;;;15.20;9.95;;;;;;;;;;5086993;28;20253;-73
2023/12/19 06:10:52;;;;;;;13.25;9.80;;;;;;;;;;5083695;28;20257;-74
2023/12/19 06:13:19;;;;;;;12.45;10.13;;;;;;;;;;5087629;28;20222;-74
2023/12/19 06:15:45;;;;;;;13.77;10.30;;;;;;;;;;5087302;28;20246;-74
2023/12/19 06:18:11;;;;;;;15.73;9.50;;;;;;;;;;5091299;28;20660;-74
2023/12/19 06:20:39;;;;;;;12.35;9.23;;;;;;;;;;5091810;28;20230;-74
2023/12/19 06:23:07;;;;;;;16.08;10.38;;;;;;;;;;5083857;28;20197;-74
2023/12/19 06:25:33;;;;;;;16.83;10.10;;;;;;;;;;5091305;28;20228;-74
2023/12/19 06:28:00;;;;;;;16.30;11.00;;;;;;;;;;5087541;28;20207;-74
2023/12/19 06:30:26;;;;;;;13.88;10.88;;;;;;;;;;5087350;28;20196;-75
2023/12/19 06:32:52;;;;;;;16.13;11.82;;;;;;;;;;5087020;28;20232;-74
2023/12/19 06:35:18;;;;;;;18.95;11.27;;;;;;;;;;5090252;28;20231;-74
2023/12/19 06:37:45;;;;;;;17.92;11.85;;;;;;;;;;5091800;28;20687;-74
2023/12/19 06:40:13;;;;;;;13.80;10.65;;;;;;;;;;5087733;28;20290;-74
2023/12/19 06:42:39;;;;;;;15.82;11.13;;;;;;;;;;5087185;28;20200;-74
2023/12/19 06:45:06;;;;;;;18.27;12.15;;;;;;;;;;5086799;28;20253;-74
2023/12/19 06:47:33;;;;;;;17.95;12.48;;;;;;;;;;5088630;28;20196;-74
2023/12/19 06:50:00;;;;;;;15.15;11.27;;;;;;;;;;5091504;28;20678;-74
2023/12/19 06:52:26;;;;;;;14.82;11.35;;;;;;;;;;5088914;28;20219;-62
2023/12/19 06:54:52;;;;;;;14.93;10.27;;;;;;;;;;5086789;28;20220;-61
2023/12/19 06:57:20;;;;;;;11.82;8.80;;;;;;;;;;5087067;28;20270;-62
2023/12/19 06:59:46;;;;;;;10.82;8.48;;;;;;;;;;5086308;28;20560;-62
2023/12/19 07:02:12;;;;;;;9.60;8.43;;;;;;;;;;5090799;28;20769;-62
2023/12/19 07:04:39;;;;;;;11.95;7.95;;;;;;;;;;5090157;28;20290;-62
2023/12/19 07:07:05;;;;;;;10.63;7.82;;;;;;;;;;5086043;28;20501;-61
2023/12/19 07:09:31;;;;;;;9.45;7.38;;;;;;;;;;5086154;28;20714;-63
2023/12/19 07:11:58;;;;;;;12.20;8.07;;;;;;;;;;5085978;28;20697;-61
2023/12/19 07:14:27;;;;;;;11.65;8.60;;;;;;;;;;5089159;28;20283;-61
2023/12/19 07:16:53;;;;;;;13.63;8.77;;;;;;;;;;5091202;28;20257;-62
2023/12/19 07:19:19;;;;;;;14.05;8.45;;;;;;;;;;5087203;28;20273;-61
2023/12/19 07:21:48;;;;;;;9.20;7.90;;;;;;;;;;5085510;28;20200;-62
2023/12/19 07:24:14;;;;;;;11.40;7.90;;;;;;;;;;5082620;28;20296;-61
2023/12/19 07:26:41;;;;;;;11.75;8.75;;;;;;;;;;5089943;28;20284;-62
2023/12/19 07:29:08;;;;;;;17.30;9.55;;;;;;;;;;5085586;28;20676;-61
2023/12/19 07:31:36;;;;;;;14.45;9.50;;;;;;;;;;5087841;28;20203;-61
2023/12/19 07:34:03;;;;;;;11.82;8.75;;;;;;;;;;5090238;28;20211;-61
2023/12/19 07:36:30;;;;;;;16.13;9.40;;;;;;;;;;5080058;28;20220;-62
2023/12/19 07:38:56;;;;;;;11.63;9.40;;;;;;;;;;5085645;28;20227;-62
2023/12/19 07:41:26;;;;;;;16.17;9.65;;;;;;;;;;5089424;28;20196;-62
2023/12/19 07:43:52;;;;;;;13.43;9.20;;;;;;;;;;5090444;28;20287;-62
2023/12/19 07:46:19;;;;;;;14.57;9.68;;;;;;;;;;5086489;28;20220;-62
2023/12/19 07:48:46;;;;;;;12.57;9.00;;;;;;;;;;5085338;28;20287;-62
2023/12/19 07:51:15;;;;;;;10.98;9.10;;;;;;;;;;5085524;28;20196;-62
2023/12/19 07:53:41;;;;;;;14.93;8.93;;;;;;;;;;5086417;28;20215;-62
2023/12/19 07:56:08;;;;;;;12.43;8.15;;;;;;;;;;5089981;28;20268;-61
2023/12/19 07:58:34;;;;;;;10.95;8.25;;;;;;;;;;5081438;28;20211;-62
2023/12/19 08:01:01;;;;;;;9.80;8.52;;;;;;;;;;5085257;28;20212;-62
2023/12/19 08:03:28;;;;;;;13.60;9.50;;;;;;;;;;5080337;28;20200;-61
2023/12/19 08:05:56;;;;;;;9.82;8.43;;;;;;;;;;5078382;28;20272;-64
2023/12/19 08:08:22;;;;;;;13.93;9.50;;;;;;;;;;5080600;28;20288;-62
2023/12/19 08:10:48;;;;;;;13.50;10.13;;;;;;;;;;5079288;28;20623;-62
2023/12/19 08:13:15;;;;;;;13.18;9.55;;;;;;;;;;5078241;28;20588;-63
2023/12/19 08:15:41;;;;;;;15.50;11.05;;;;;;;;;;5077261;28;20211;-63
2023/12/19 08:18:08;;;;;;;17.83;11.27;;;;;;;;;;5071002;28;20695;-65
2023/12/19 08:20:35;;;;;;;18.95;12.50;;;;;;;;;;5079135;28;20203;-64
2023/12/19 08:23:03;;;;;;;19.45;12.70;;;;;;;;;;5077329;28;20739;-63
2023/12/19 08:25:29;;;;;;;20.27;12.75;;;;;;;;;;5075596;28;20514;-62
2023/12/19 08:27:55;;;;;;;15.85;11.75;;;;;;;;;;5076205;28;20213;-61
2023/12/19 08:30:22;;;;;;;16.35;11.93;;;;;;;;;;5078979;28;20628;-60
2023/12/19 08:32:49;;;;;;;16.85;11.60;;;;;;;;;;5078970;28;20224;-63
2023/12/19 08:35:15;;;;;;;17.35;11.52;;;;;;;;;;5069491;28;20224;-60
2023/12/19 08:37:41;;;;;;;15.57;11.18;;;;;;;;;;5075251;28;20254;-62
2023/12/19 08:40:10;;;;;;;15.75;10.68;;;;;;;;;;5077581;28;20208;-60
2023/12/19 08:42:36;;;;;;;15.82;12.23;;;;;;;;;;5078366;28;20193;-61
2023/12/19 08:45:02;;;;;;;17.63;11.18;;;;;;;;;;5080416;28;20220;-61
2023/12/19 08:47:29;;;;;;;19.00;11.23;;;;;;;;;;5085941;28;20290;-61
2023/12/19 08:49:58;;;;;;;19.23;11.43;;;;;;;;;;5084001;28;20192;-61
2023/12/19 08:52:25;;;;;;;17.88;11.90;;;;;;;;;;5084162;28;20294;-61
2023/12/19 08:54:52;;;;;;;16.67;11.40;;;;;;;;;;5084151;28;20243;-60
2023/12/19 08:57:20;;;;;;;18.77;12.30;;;;;;;;;;5083838;28;20193;-59
2023/12/19 08:59:46;;;;;;;17.40;12.52;;;;;;;;;;5085115;28;20255;-60
2023/12/19 09:02:12;;;;;;;23.55;14.05;;;;;;;;;;5088966;28;20200;-60
2023/12/19 09:04:38;;;;;;;27.13;13.25;;;;;;;;;;5086381;28;20203;-62
2023/12/19 09:07:05;;;;;;;24.65;14.40;;;;;;;;;;5084054;28;20192;-60
2023/12/19 09:09:31;;;;;;;20.33;12.75;;;;;;;;;;5083821;28;20565;-60
2023/12/19 09:11:58;;;;;;;20.00;12.70;;;;;;;;;;5083565;28;20685;-60
2023/12/19 09:14:25;;;;;;;16.15;11.77;;;;;;;;;;5088262;28;20270;-60
2023/12/19 09:16:51;;;;;;;16.10;11.45;;;;;;;;;;5087922;28;20219;-59
2023/12/19 09:19:18;;;;;;;20.00;12.65;;;;;;;;;;5083448;28;20656;-60
2023/12/19 09:21:44;;;;;;;25.70;12.63;;;;;;;;;;5085661;28;20223;-59
2023/12/19 09:24:10;;;;;;;20.85;12.52;;;;;;;;;;5088357;28;20208;-60
2023/12/19 09:26:38;;;;;;;18.67;12.55;;;;;;;;;;5085439;28;20297;-58
2023/12/19 09:29:04;;;;;;;21.35;12.40;;;;;;;;;;5083583;28;20656;-60
2023/12/19 09:31:32;;;;;;;20.40;12.63;;;;;;;;;;5087509;28;20643;-61
2023/12/19 09:33:58;;;;;;;21.10;13.05;;;;;;;;;;5085014;28;20580;-62
2023/12/19 09:36:24;;;;;;;19.83;12.00;;;;;;;;;;5086240;28;20631;-60
2023/12/19 09:38:51;;;;;;;16.50;11.95;;;;;;;;;;5084600;28;20278;-61
2023/12/19 09:41:18;;;;;;;14.32;12.25;;;;;;;;;;5085068;28;20266;-61
2023/12/19 09:43:44;;;;;;;19.98;12.90;;;;;;;;;;5088274;28;20261;-61
2023/12/19 09:46:11;;;;;;;16.95;11.55;;;;;;;;;;5091205;28;20235;-61
2023/12/19 09:48:39;;;;;;;18.40;12.02;;;;;;;;;;5088768;28;20204;-61
2023/12/19 09:51:06;;;;;;;19.77;12.60;;;;;;;;;;5091382;28;20196;-61
2023/12/19 09:53:33;;;;;;;16.85;12.45;;;;;;;;;;5090036;28;20220;-61
2023/12/19 09:56:00;;;;;;;16.65;12.85;;;;;;;;;;5085870;28;20741;-61
2023/12/19 09:58:28;;;;;;;20.33;13.05;;;;;;;;;;5080234;28;20206;-60
2023/12/19 10:00:55;;;;;;;18.42;12.70;;;;;;;;;;5087950;28;20195;-60
2023/12/19 10:03:21;;;;;;;17.02;12.45;;;;;;;;;;5084215;28;20284;-61
2023/12/19 10:05:49;;;;;;;17.48;12.40;;;;;;;;;;5084483;28;20652;-61
2023/12/19 10:08:15;;;;;;;17.52;12.05;;;;;;;;;;5083706;28;20742;-59
2023/12/19 10:10:51;;;;;;;19.20;13.75;;;;;;;;;;5085747;28;20664;-61
2023/12/19 10:13:25;;;;;;;17.95;12.73;;;;;;;;;;5087693;28;20215;-60
2023/12/19 10:15:59;;;;;;;19.00;12.60;;;;;;;;;;5079581;28;20306;-61
2023/12/19 10:18:25;;;;;;;29.05;16.25;;;;;;;;;;5082590;28;20196;-60
2023/12/19 10:21:02;;;;;;;19.05;13.68;;;;;;;;;;5084337;28;20201;-60
2023/12/19 10:23:28;;;;;;;18.70;12.90;;;;;;;;;;5079546;28;20192;-60
2023/12/19 10:25:55;;;;;;;18.80;13.10;;;;;;;;;;5086520;28;20220;-60
2023/12/19 10:28:21;;;;;;;13.90;12.40;;;;;;;;;;5082851;28;20208;-60
2023/12/19 10:30:47;;;;;;;17.88;12.82;;;;;;;;;;5082845;28;20269;-60
2023/12/19 10:33:14;;;;;;;18.27;12.32;;;;;;;;;;5082319;28;20220;-59
2023/12/19 10:35:40;;;;;;;14.40;11.88;;;;;;;;;;5086496;28;20525;-60
2023/12/19 10:38:08;;;;;;;19.00;11.85;;;;;;;;;;5087705;28;20206;-60
2023/12/19 10:40:34;;;;;;;18.75;12.25;;;;;;;;;;5083445;28;20196;-60
2023/12/19 10:43:02;;;;;;;15.30;11.82;;;;;;;;;;5082632;28;20239;-60
2023/12/19 10:45:28;;;;;;;16.98;12.10;;;;;;;;;;5082963;28;20223;-60
2023/12/19 10:47:55;;;;;;;16.00;12.45;;;;;;;;;;5083872;28;20201;-60
2023/12/19 10:50:21;;;;;;;16.98;12.48;;;;;;;;;;5087534;28;20200;-60
2023/12/19 10:52:49;;;;;;;13.15;11.25;;;;;;;;;;5085010;28;20192;-60
2023/12/19 10:55:21;;;;;;;13.55;10.98;;;;;;;;;;5082667;28;20591;-60
2023/12/19 10:57:48;;;;;;;13.82;10.82;;;;;;;;;;5084609;28;20208;-61
2023/12/19 11:00:22;;;;;;;13.65;11.00;;;;;;;;;;5086016;28;20265;-60
2023/12/19 11:02:54;;;;;;;14.02;10.80;;;;;;;;;;5088856;28;20208;-60
2023/12/19 11:05:24;;;;;;;16.90;12.82;;;;;;;;;;5084538;28;20307;-61
2023/12/19 11:07:50;;;;;;;14.35;11.30;;;;;;;;;;5088618;28;20197;-60
2023/12/19 11:10:19;;;;;;;15.65;11.93;;;;;;;;;;5090625;28;20660;-61
2023/12/19 11:12:46;;;;;;;15.50;11.77;;;;;;;;;;5087661;28;20192;-60
2023/12/19 11:15:12;;;;;;;14.77;11.52;;;;;;;;;;5085772;28;20310;-61
2023/12/19 11:17:45;;;;;;;16.15;11.95;;;;;;;;;;5081665;28;20250;-61
2023/12/19 11:20:15;;;;;;;16.33;11.55;;;;;;;;;;5082853;28;20212;-61
2023/12/19 11:22:48;;;;;;;14.57;11.60;;;;;;;;;;5089182;28;20712;-61
2023/12/19 11:25:20;;;;;;;18.30;11.90;;;;;;;;;;5082848;28;20332;-61
2023/12/19 11:27:52;;;;;;;15.40;11.63;;;;;;;;;;5088920;28;20262;-61
2023/12/19 11:30:30;;;;;;;14.45;11.32;;;;;;;;;;5083508;28;20208;-61
2023/12/19 11:32:57;;;;;;;14.27;11.65;;;;;;;;;;5087345;28;20246;-61
2023/12/19 11:35:27;;;;;;;17.52;12.30;;;;;;;;;;5090228;28;20763;-61
2023/12/19 11:38:13;;;;;;;14.57;11.77;;;;;;;;;;5082044;28;20612;-61
2023/12/19 11:40:49;;;;;;;16.70;11.63;;;;;;;;;;5081822;28;20196;-61
2023/12/19 11:43:36;;;;;;;15.32;10.95;;;;;;;;;;5090224;28;20203;-61
2023/12/19 11:46:16;;;;;;;14.73;11.40;;;;;;;;;;5088797;28;20602;-61
2023/12/19 11:48:44;;;;;;;14.20;11.63;;;;;;;;;;5082217;28;20307;-61
2023/12/19 11:51:11;;;;;;;13.43;11.90;;;;;;;;;;5090180;28;20199;-61
2023/12/19 11:53:37;;;;;;;15.45;12.43;;;;;;;;;;5081947;28;20208;-61
2023/12/19 11:56:08;;;;;;;14.10;11.90;;;;;;;;;;5089220;28;20341;-61
2023/12/19 11:58:34;;;;;;;14.93;12.55;;;;;;;;;;5081930;28;20615;-61
2023/12/19 12:01:01;;;;;;;13.77;11.82;;;;;;;;;;5088586;28;20208;-61
2023/12/19 12:03:29;;;;;;;17.55;11.18;;;;;;;;;;5085009;28;20200;-61
2023/12/19 12:05:55;;;;;;;13.35;10.60;;;;;;;;;;5087379;28;20298;-61
2023/12/19 12:08:22;;;;;;;12.88;11.13;;;;;;;;;;5089847;28;20253;-61
2023/12/19 12:10:58;;;;;;;14.32;11.85;;;;;;;;;;5086510;28;20290;-61
2023/12/19 12:13:25;;;;;;;10.70;9.60;;;;;;;;;;5084339;28;20203;-61
2023/12/19 12:15:52;;;;;;;10.13;9.13;;;;;;;;;;5085095;28;20720;-62
2023/12/19 12:18:19;;;;;;;11.52;9.43;;;;;;;;;;5084877;28;20197;-61
2023/12/19 12:20:47;;;;;;;9.93;8.93;;;;;;;;;;5088573;28;20283;-62
2023/12/19 12:23:17;;;;;;;10.50;9.23;;;;;;;;;;5089893;28;20257;-60
2023/12/19 12:25:43;;;;;;;10.77;9.20;;;;;;;;;;5080635;28;20630;-62
2023/12/19 12:28:10;;;;;;;10.25;9.02;;;;;;;;;;5078103;28;20321;-63
2023/12/19 12:30:37;;;;;;;11.52;9.20;;;;;;;;;;5084166;28;20593;-63
2023/12/19 12:33:04;;;;;;;10.40;9.40;;;;;;;;;;5076339;28;20203;-62
2023/12/19 12:35:35;;;;;;;12.52;9.73;;;;;;;;;;5081491;28;20719;-62
2023/12/19 12:38:03;;;;;;;9.55;8.57;;;;;;;;;;5072921;28;20208;-64
2023/12/19 12:40:30;;;;;;;11.25;9.13;;;;;;;;;;5079839;28;20838;-63
2023/12/19 12:43:15;;;;;;;11.98;9.07;;;;;;;;;;5072556;28;20258;-65
2023/12/19 12:45:41;;;;;;;10.65;8.93;;;;;;;;;;5076823;28;20231;-61
2023/12/19 12:48:14;;;;;;;11.60;9.18;;;;;;;;;;5078583;28;20239;-60
2023/12/19 12:50:40;;;;;;;11.75;9.25;;;;;;;;;;5078238;28;20207;-62
2023/12/19 12:53:13;;;;;;;10.23;9.15;;;;;;;;;;5078321;28;20745;-59
2023/12/19 12:55:40;;;;;;;11.32;9.10;;;;;;;;;;5078147;28;20302;-61
2023/12/19 12:58:06;;;;;;;10.30;8.95;;;;;;;;;;5079933;28;20201;-61
2023/12/19 13:00:32;;;;;;;10.50;9.48;;;;;;;;;;5076724;28;20242;-59
2023/12/19 13:02:58;;;;;;;12.20;9.77;;;;;;;;;;5080862;28;20251;-58
2023/12/19 13:05:25;;;;;;;10.95;9.35;;;;;;;;;;5075537;28;20231;-60
2023/12/19 13:07:52;;;;;;;11.77;9.75;;;;;;;;;;5081939;28;20211;-59
2023/12/19 13:10:20;;;;;;;11.48;9.88;;;;;;;;;;5083019;28;20647;-59
2023/12/19 13:12:46;;;;;;;12.80;9.68;;;;;;;;;;5078759;28;20215;-60
2023/12/19 13:15:14;;;;;;;11.23;9.20;;;;;;;;;;5078047;28;20696;-60
2023/12/19 13:17:40;;;;;;;11.23;9.15;;;;;;;;;;5077695;28;20713;-57
2023/12/19 13:20:10;;;;;;;10.63;9.32;;;;;;;;;;5079428;28;20208;-62
2023/12/19 13:22:36;;;;;;;14.35;9.23;;;;;;;;;;5073889;28;20216;-60
2023/12/19 13:25:03;;;;;;;10.57;8.93;;;;;;;;;;5069914;28;20303;-60
2023/12/19 13:27:31;;;;;;;11.13;9.82;;;;;;;;;;5075559;28;20526;-60
2023/12/19 13:30:00;;;;;;;13.77;9.30;;;;;;;;;;5078815;28;20630;-62
2023/12/19 13:32:26;;;;;;;12.48;9.23;;;;;;;;;;5074913;28;20307;-60
2023/12/19 13:34:52;;;;;;;15.77;9.73;;;;;;;;;;5081523;28;20695;-60
2023/12/19 13:37:18;;;;;;;15.07;10.45;;;;;;;;;;5074088;28;20243;-61
2023/12/19 13:39:45;;;;;;;13.70;10.13;;;;;;;;;;5077635;28;20212;-60
2023/12/19 13:42:11;;;;;;;17.27;11.32;;;;;;;;;;5084240;28;20204;-61
2023/12/19 13:44:38;;;;;;;16.13;10.68;;;;;;;;;;5087538;28;20246;-60
2023/12/19 13:47:05;;;;;;;14.15;11.05;;;;;;;;;;5076466;28;20208;-60
2023/12/19 13:49:32;;;;;;;13.43;10.70;;;;;;;;;;5075291;28;20620;-62
2023/12/19 13:51:58;;;;;;;14.35;11.13;;;;;;;;;;5081736;28;20936;-64
2023/12/19 13:54:26;;;;;;;15.52;10.57;;;;;;;;;;5082492;28;20212;-60
2023/12/19 13:56:52;;;;;;;13.23;11.00;;;;;;;;;;5083149;28;20613;-60
2023/12/19 13:59:18;;;;;;;12.02;10.00;;;;;;;;;;5083562;28;20661;-60
2023/12/19 14:01:46;;;;;;;13.75;9.90;;;;;;;;;;5082468;28;20195;-60
2023/12/19 14:04:13;;;;;;;12.30;10.20;;;;;;;;;;5084624;28;20665;-60
2023/12/19 14:06:39;;;;;;;12.82;9.48;;;;;;;;;;5087952;28;20265;-59
2023/12/19 14:09:05;;;;;;;14.77;9.65;;;;;;;;;;5085320;28;20253;-60
2023/12/19 14:11:31;;;;;;;11.23;9.30;;;;;;;;;;5082907;28;20249;-60
2023/12/19 14:13:58;;;;;;;11.48;9.13;;;;;;;;;;5082806;28;20264;-60
2023/12/19 14:16:26;;;;;;;10.55;9.25;;;;;;;;;;5083345;28;20231;-59
2023/12/19 14:18:53;;;;;;;10.18;8.90;;;;;;;;;;5079561;28;20199;-60
2023/12/19 14:21:19;;;;;;;11.82;9.07;;;;;;;;;;5087150;28;20253;-59
2023/12/19 14:23:47;;;;;;;11.25;9.18;;;;;;;;;;5082685;28;20249;-60